Terminal Aerodrome Forecast
Issued by NWS Buffalo, NY

Home | Current Version | Previous Version | Text Only | Print | Product List | Glossary On
Versions: 1 2 3 4 5 6 7 8 9 10 11 12 13 14 15 16 17 18 19 20 21
000
FTUS41 KBUF 291700
TAFROC
TAF
KROC 291732Z 2918/3018 16012KT P6SM OVC070
     FM291900 17015KT 6SM BR VCSH OVC060
     FM292300 18015G22KT 3SM -SN OVC035
     FM300200 22011KT 2SM -SN OVC012
     FM301500 31018G24KT 3SM -SHSN OVC012=

USA.gov is the U.S. government's official web portal to all federal, state and local government web resources and services.